Login to view Products
 
Sunday, May 31, 2020 (13:26 UTC)
Ras Al Khaimah International Airport
ICAO: OMRK
IATA: RKT
  • METAR OMRK 311300Z 32010KT 8000 NSC 37/19 Q1004 A2965=
  • TAF OMRK 311053Z 3112/0118 33013KT 3000 DU NSC BECMG 3112/3114 5000 BECMG 3114/3116 09005KT 8000 NSW BECMG 0103/0105 20015KT PROB30 0104/0110 3000 DU BECMG 0107/0109 29015KT BECMG 0114/0116 09005KT=
D:\Input Parser\Destinations\Final\10\OMRKL12181053761217994.txt
1